Aviation Digital Data Service (ADDS)

Output produced by METARs form (0543 UTC 16 February 2019)
found at http://www.aviationweather.gov/metar/data/
 
METAR text: MMPB 160151Z 20008KT 8SM SKC 17/04 A3026 RMK HZY
Conditions at: MMPB (PUEBLA , MX) observed 0151 UTC 16 February 2019
Temperature: 17.0°C (63°F)
Dewpoint: 4.0°C (39°F) [RH = 42%]
Pressure (altimeter): 30.26 inches Hg (1024.8 mb)
Winds: from the SSW (200 degrees) at 9 MPH (8 knots; 4.1 m/s)
Visibility: 8 miles (13 km)
Ceiling: at least 12,000 feet AGL
Clouds: clear skies
Weather: no significant weather observed at this time

METAR text: MMPB 160042Z 19009KT 9SM SKC 19/03 A3023 RMK HZY
Conditions at: MMPB (PUEBLA , MX) observed 0042 UTC 16 February 2019
Temperature: 19.0°C (66°F)
Dewpoint: 3.0°C (37°F) [RH = 34%]
Pressure (altimeter): 30.23 inches Hg (1023.8 mb)
Winds: from the S (190 degrees) at 10 MPH (9 knots; 4.6 m/s)
Visibility: 9 miles (14 km)
Ceiling: at least 12,000 feet AGL
Clouds: clear skies
Weather: no significant weather observed at this time

METAR text: MMPB 152341Z 17011KT 10SM SKC 23/04 A3022 RMK HZY
Conditions at: MMPB (PUEBLA , MX) observed 2341 UTC 15 February 2019
Temperature: 23.0°C (73°F)
Dewpoint: 4.0°C (39°F) [RH = 29%]
Pressure (altimeter): 30.22 inches Hg (1023.5 mb)
Winds: from the S (170 degrees) at 13 MPH (11 knots; 5.7 m/s)
Visibility: 10 or more miles (16+ km)
Ceiling: at least 12,000 feet AGL
Clouds: clear skies
Weather: no significant weather observed at this time

METAR text: MMPB 152242Z 19013KT 8SM SKC 24/05 A3022 RMK HZY
Conditions at: MMPB (PUEBLA , MX) observed 2242 UTC 15 February 2019
Temperature: 24.0°C (75°F)
Dewpoint: 5.0°C (41°F) [RH = 29%]
Pressure (altimeter): 30.22 inches Hg (1023.5 mb)
Winds: from the S (190 degrees) at 15 MPH (13 knots; 6.7 m/s)
Visibility: 8 miles (13 km)
Ceiling: at least 12,000 feet AGL
Clouds: clear skies
Weather: no significant weather observed at this time

METAR text: MMPB 152145Z 19011KT 8SM SKC 25/05 A3022 RMK HZY
Conditions at: MMPB (PUEBLA , MX) observed 2145 UTC 15 February 2019
Temperature: 25.0°C (77°F)
Dewpoint: 5.0°C (41°F) [RH = 28%]
Pressure (altimeter): 30.22 inches Hg (1023.5 mb)
Winds: from the S (190 degrees) at 13 MPH (11 knots; 5.7 m/s)
Visibility: 8 miles (13 km)
Ceiling: at least 12,000 feet AGL
Clouds: clear skies
Weather: no significant weather observed at this time

METAR text: MMPB 152042Z 17008KT 8SM SKC 25/06 A3023 RMK HZY FU W
Conditions at: MMPB (PUEBLA , MX) observed 2042 UTC 15 February 2019
Temperature: 25.0°C (77°F)
Dewpoint: 6.0°C (43°F) [RH = 30%]
Pressure (altimeter): 30.23 inches Hg (1023.8 mb)
Winds: from the S (170 degrees) at 9 MPH (8 knots; 4.1 m/s)
Visibility: 8 miles (13 km)
Ceiling: at least 12,000 feet AGL
Clouds: clear skies
Weather: no significant weather observed at this time

METAR text: MMPB 151940Z 16006KT 9SM SKC 24/05 A3026 RMK HZY
Conditions at: MMPB (PUEBLA , MX) observed 1940 UTC 15 February 2019
Temperature: 24.0°C (75°F)
Dewpoint: 5.0°C (41°F) [RH = 29%]
Pressure (altimeter): 30.26 inches Hg (1024.8 mb)
Winds: from the SSE (160 degrees) at 7 MPH (6 knots; 3.1 m/s)
Visibility: 9 miles (14 km)
Ceiling: at least 12,000 feet AGL
Clouds: clear skies
Weather: no significant weather observed at this time

METAR text: MMPB 151842Z 22011KT 9SM SKC 23/05 A3029 RMK HZY
Conditions at: MMPB (PUEBLA , MX) observed 1842 UTC 15 February 2019
Temperature: 23.0°C (73°F)
Dewpoint: 5.0°C (41°F) [RH = 31%]
Pressure (altimeter): 30.29 inches Hg (1025.8 mb)
Winds: from the SW (220 degrees) at 13 MPH (11 knots; 5.7 m/s)
Visibility: 9 miles (14 km)
Ceiling: at least 12,000 feet AGL
Clouds: clear skies
Weather: no significant weather observed at this time

METAR text: MMPB 151746Z 19012KT 9SM SKC 22/05 A3032 RMK HZY
Conditions at: MMPB (PUEBLA , MX) observed 1746 UTC 15 February 2019
Temperature: 22.0°C (72°F)
Dewpoint: 5.0°C (41°F) [RH = 33%]
Pressure (altimeter): 30.32 inches Hg (1026.8 mb)
Winds: from the S (190 degrees) at 14 MPH (12 knots; 6.2 m/s)
Visibility: 9 miles (14 km)
Ceiling: at least 12,000 feet AGL
Clouds: clear skies
Weather: no significant weather observed at this time

METAR text: MMPB 151644Z 15007KT 8SM SKC 21/07 A3034 RMK HZY
Conditions at: MMPB (PUEBLA , MX) observed 1644 UTC 15 February 2019
Temperature: 21.0°C (70°F)
Dewpoint: 7.0°C (45°F) [RH = 40%]
Pressure (altimeter): 30.34 inches Hg (1027.5 mb)
Winds: from the SSE (150 degrees) at 8 MPH (7 knots; 3.6 m/s)
Visibility: 8 miles (13 km)
Ceiling: at least 12,000 feet AGL
Clouds: clear skies
Weather: no significant weather observed at this time

METAR text: MMPB 151549Z 08003KT 8SM SKC 18/07 A3034 RMK HZY
Conditions at: MMPB (PUEBLA , MX) observed 1549 UTC 15 February 2019
Temperature: 18.0°C (64°F)
Dewpoint: 7.0°C (45°F) [RH = 49%]
Pressure (altimeter): 30.34 inches Hg (1027.5 mb)
Winds: from the E (80 degrees) at 3 MPH (3 knots; 1.5 m/s)
Visibility: 8 miles (13 km)
Ceiling: at least 12,000 feet AGL
Clouds: clear skies
Weather: no significant weather observed at this time

METAR text: MMPB 151444Z 34004KT 8SM SKC 14/07 A3034 RMK HZY
Conditions at: MMPB (PUEBLA , MX) observed 1444 UTC 15 February 2019
Temperature: 14.0°C (57°F)
Dewpoint: 7.0°C (45°F) [RH = 63%]
Pressure (altimeter): 30.34 inches Hg (1027.5 mb)
Winds: from the NNW (340 degrees) at 5 MPH (4 knots; 2.1 m/s)
Visibility: 8 miles (13 km)
Ceiling: at least 12,000 feet AGL
Clouds: clear skies
Weather: no significant weather observed at this time

METAR text: MMPB 151341Z 32006KT 9SM SKC 09/06 A3032 RMK HZY
Conditions at: MMPB (PUEBLA , MX) observed 1341 UTC 15 February 2019
Temperature: 9.0°C (48°F)
Dewpoint: 6.0°C (43°F) [RH = 81%]
Pressure (altimeter): 30.32 inches Hg (1026.8 mb)
Winds: from the NW (320 degrees) at 7 MPH (6 knots; 3.1 m/s)
Visibility: 9 miles (14 km)
Ceiling: at least 12,000 feet AGL
Clouds: clear skies
Weather: no significant weather observed at this time

METAR text: MMPB 151100Z RTD 32005KT 10SM SKC 09/06 A3027 RMK HZY RTS
Conditions at: MMPB (PUEBLA , MX) observed 1100 UTC 15 February 2019
Temperature: 9.0°C (48°F)
Dewpoint: 6.0°C (43°F) [RH = 81%]
Pressure (altimeter): 30.27 inches Hg (1025.1 mb)
Winds: from the NW (320 degrees) at 6 MPH (5 knots; 2.6 m/s)
Visibility: 10 or more miles (16+ km)
Ceiling: at least 12,000 feet AGL
Clouds: clear skies
Weather: no significant weather observed at this time

METAR text: MMPB 150140Z 18008KT 8SM SKC 16/06 A3026 RMK HZY SC
Conditions at: MMPB (PUEBLA , MX) observed 0140 UTC 15 February 2019
Temperature: 16.0°C (61°F)
Dewpoint: 6.0°C (43°F) [RH = 51%]
Pressure (altimeter): 30.26 inches Hg (1024.8 mb)
Winds: from the S (180 degrees) at 9 MPH (8 knots; 4.1 m/s)
Visibility: 8 miles (13 km)
Ceiling: at least 12,000 feet AGL
Clouds: clear skies
Weather: no significant weather observed at this time

METAR text: MMPB 150050Z 19008KT 8SM SKC 18/05 A3025 RMK HZY SC
Conditions at: MMPB (PUEBLA , MX) observed 0050 UTC 15 February 2019
Temperature: 18.0°C (64°F)
Dewpoint: 5.0°C (41°F) [RH = 42%]
Pressure (altimeter): 30.25 inches Hg (1024.5 mb)
Winds: from the S (190 degrees) at 9 MPH (8 knots; 4.1 m/s)
Visibility: 8 miles (13 km)
Ceiling: at least 12,000 feet AGL
Clouds: clear skies
Weather: no significant weather observed at this time

METAR text: MMPB 142341Z 20012KT 10SM FEW025 21/05 A3023 RMK 8/400 HZY
Conditions at: MMPB (PUEBLA , MX) observed 2341 UTC 14 February 2019
Temperature: 21.0°C (70°F)
Dewpoint: 5.0°C (41°F) [RH = 35%]
Pressure (altimeter): 30.23 inches Hg (1023.8 mb)
Winds: from the SSW (200 degrees) at 14 MPH (12 knots; 6.2 m/s)
Visibility: 10 or more miles (16+ km)
Ceiling: at least 12,000 feet AGL
Clouds: few clouds at 2500 feet AGL
Weather: no significant weather observed at this time

METAR text: MMPB 142249Z 18012KT 9SM FEW025 23/05 A3022 RMK 8/100 HZY
Conditions at: MMPB (PUEBLA , MX) observed 2249 UTC 14 February 2019
Temperature: 23.0°C (73°F)
Dewpoint: 5.0°C (41°F) [RH = 31%]
Pressure (altimeter): 30.22 inches Hg (1023.5 mb)
Winds: from the S (180 degrees) at 14 MPH (12 knots; 6.2 m/s)
Visibility: 9 miles (14 km)
Ceiling: at least 12,000 feet AGL
Clouds: few clouds at 2500 feet AGL
Weather: no significant weather observed at this time

METAR text: MMPB 142151Z 18012KT 8SM FEW025 24/07 A3022 RMK 8/100 HZY
Conditions at: MMPB (PUEBLA , MX) observed 2151 UTC 14 February 2019
Temperature: 24.0°C (75°F)
Dewpoint: 7.0°C (45°F) [RH = 34%]
Pressure (altimeter): 30.22 inches Hg (1023.5 mb)
Winds: from the S (180 degrees) at 14 MPH (12 knots; 6.2 m/s)
Visibility: 8 miles (13 km)
Ceiling: at least 12,000 feet AGL
Clouds: few clouds at 2500 feet AGL
Weather: no significant weather observed at this time

METAR text: MMPB 142048Z 19008KT 8SM SCT025 23/07 A3023 RMK 8/100 HZY
Conditions at: MMPB (PUEBLA , MX) observed 2048 UTC 14 February 2019
Temperature: 23.0°C (73°F)
Dewpoint: 7.0°C (45°F) [RH = 36%]
Pressure (altimeter): 30.23 inches Hg (1023.8 mb)
Winds: from the S (190 degrees) at 9 MPH (8 knots; 4.1 m/s)
Visibility: 8 miles (13 km)
Ceiling: at least 12,000 feet AGL
Clouds: scattered clouds at 2500 feet AGL
Weather: no significant weather observed at this time

METAR text: MMPB 141943Z 21012KT 8SM SCT020 23/07 A3027 RMK 8/100 HZY
Conditions at: MMPB (PUEBLA , MX) observed 1943 UTC 14 February 2019
Temperature: 23.0°C (73°F)
Dewpoint: 7.0°C (45°F) [RH = 36%]
Pressure (altimeter): 30.27 inches Hg (1025.1 mb)
Winds: from the SSW (210 degrees) at 14 MPH (12 knots; 6.2 m/s)
Visibility: 8 miles (13 km)
Ceiling: at least 12,000 feet AGL
Clouds: scattered clouds at 2000 feet AGL
Weather: no significant weather observed at this time

METAR text: MMPB 141844Z 18007G17KT 8SM FEW020 22/07 A3031 RMK 8/100 HZY
Conditions at: MMPB (PUEBLA , MX) observed 1844 UTC 14 February 2019
Temperature: 22.0°C (72°F)
Dewpoint: 7.0°C (45°F) [RH = 38%]
Pressure (altimeter): 30.31 inches Hg (1026.5 mb)
Winds: from the S (180 degrees) at 8 MPH (7 knots; 3.6 m/s)
gusting to 20 MPH (17 knots; 8.7 m/s)
Visibility: 8 miles (13 km)
Ceiling: at least 12,000 feet AGL
Clouds: few clouds at 2000 feet AGL
Weather: no significant weather observed at this time

METAR text: MMPB 141745Z 13003KT 8SM FEW020 21/07 A3034 RMK 8/100 HZY
Conditions at: MMPB (PUEBLA , MX) observed 1745 UTC 14 February 2019
Temperature: 21.0°C (70°F)
Dewpoint: 7.0°C (45°F) [RH = 40%]
Pressure (altimeter): 30.34 inches Hg (1027.5 mb)
Winds: from the SE (130 degrees) at 3 MPH (3 knots; 1.5 m/s)
Visibility: 8 miles (13 km)
Ceiling: at least 12,000 feet AGL
Clouds: few clouds at 2000 feet AGL
Weather: no significant weather observed at this time

Forecast for: MMPB (PUEBLA , MX)
Text: TAF MMPB 160439Z 1606/1706 00000KT 6SM HZ SKC
Forecast period: 0600 to 1800 UTC 16 February 2019
Forecast type: FROM: standard forecast or significant change
Winds: calm
Visibility: 6 miles (10 km)
Clouds: clear skies
Weather: HZ  (haze)
Text: FM161800 12010KT P6SM SKC
Forecast period: 1800 UTC 16 February 2019 to 0300 UTC 17 February 2019
Forecast type: FROM: standard forecast or significant change
Winds: from the ESE (120 degrees) at 12 MPH (10 knots; 5.1 m/s)
Visibility: 6 or more miles 10+ km)
Clouds: clear skies
Weather: no significant weather forecast for this period
Text: FM170300 14005KT 6SM HZ SKC
Forecast period: 0300 to 0600 UTC 17 February 2019
Forecast type: FROM: standard forecast or significant change
Winds: from the SE (140 degrees) at 6 MPH (5 knots; 2.6 m/s)
Visibility: 6 miles (10 km)
Clouds: clear skies
Weather: HZ  (haze)